Time;durP1;ratioP1;P1;durP2;ratioP2;P2;SDS_P1;SDS_P2;PMS_P1;PMS_P2;Temp;Humidity;BMP_temperature;BMP_pressure;BME280_temperature;BME280_humidity;BME280_pressure;Samples;Min_cycle;Max_cycle;Signal;HPM_P1;HPM_P2
2023/04/27 00:00:46;;;;;;;5.18;2.25;;;10.50;54.80;;;;;;5035205;28;20037;-95
2023/04/27 00:03:12;;;;;;;4.45;2.10;;;10.50;54.60;;;;;;5034926;28;20033;-95
2023/04/27 00:05:38;;;;;;;11.02;3.13;;;10.40;54.30;;;;;;5034688;28;20040;-96
2023/04/27 00:08:07;;;;;;;7.97;2.45;;;10.40;54.10;;;;;;5034857;28;20646;-95
2023/04/27 00:10:33;;;;;;;6.03;2.97;;;10.30;54.20;;;;;;5034172;28;20033;-96
2023/04/27 00:13:00;;;;;;;9.27;2.50;;;10.30;54.20;;;;;;5035187;28;20052;-95
2023/04/27 00:15:26;;;;;;;6.93;2.53;;;10.30;54.40;;;;;;5035041;28;20483;-93
2023/04/27 00:17:51;;;;;;;4.80;2.22;;;10.20;54.50;;;;;;5034263;28;20033;-93
2023/04/27 00:20:17;;;;;;;18.33;2.35;;;10.20;54.90;;;;;;5034341;28;20060;-96
2023/04/27 00:22:43;;;;;;;5.03;2.33;;;10.20;55.00;;;;;;5042217;28;20037;-95
2023/04/27 00:25:09;;;;;;;5.00;2.50;;;10.10;55.10;;;;;;5035314;28;20044;-95
2023/04/27 00:27:35;;;;;;;4.85;2.60;;;10.10;55.20;;;;;;5034371;28;20049;-95
2023/04/27 00:30:01;;;;;;;4.05;2.25;;;10.00;55.20;;;;;;5031126;28;20026;-95
2023/04/27 00:32:27;;;;;;;5.13;2.40;;;10.00;55.40;;;;;;5032894;28;20045;-95
2023/04/27 00:34:52;;;;;;;4.70;2.45;;;9.90;55.40;;;;;;5034733;28;20034;-95
2023/04/27 00:37:18;;;;;;;3.70;2.50;;;9.90;55.50;;;;;;5033500;28;20053;-96
2023/04/27 00:39:44;;;;;;;4.82;2.55;;;9.90;55.60;;;;;;5034406;28;20026;-95
2023/04/27 00:42:14;;;;;;;7.72;2.40;;;9.80;55.70;;;;;;5030242;28;20034;-95
2023/04/27 00:44:40;;;;;;;6.63;2.67;;;9.80;55.30;;;;;;5034219;28;20349;-96
2023/04/27 00:47:06;;;;;;;11.80;2.65;;;9.70;55.00;;;;;;5031796;28;20034;-95
2023/04/27 00:49:31;;;;;;;26.85;2.97;;;9.70;55.00;;;;;;5031686;28;20033;-95
2023/04/27 00:51:59;;;;;;;6.32;2.78;;;9.60;55.00;;;;;;5031130;28;20037;-96
2023/04/27 00:54:25;;;;;;;8.65;2.95;;;9.60;55.20;;;;;;5027377;28;20029;-95
2023/04/27 00:56:51;;;;;;;9.20;2.50;;;9.50;55.20;;;;;;5027442;28;20064;-95
2023/04/27 00:59:18;;;;;;;9.68;2.25;;;9.50;55.30;;;;;;5024703;28;20033;-95
2023/04/27 01:01:48;;;;;;;5.43;2.42;;;9.40;55.10;;;;;;5027662;28;20038;-95
2023/04/27 01:04:13;;;;;;;4.70;2.28;;;9.40;55.00;;;;;;5026814;28;20448;-95
2023/04/27 01:06:39;;;;;;;6.20;2.08;;;9.40;54.80;;;;;;5026520;28;20083;-95
2023/04/27 01:09:05;;;;;;;5.70;2.55;;;9.30;54.90;;;;;;5030346;28;20084;-95
2023/04/27 01:11:35;;;;;;;3.53;2.22;;;9.30;55.20;;;;;;5025804;28;20029;-96
2023/04/27 01:14:05;;;;;;;3.03;2.10;;;9.30;55.90;;;;;;5028198;28;20112;-95
2023/04/27 01:16:32;;;;;;;6.38;2.67;;;9.20;56.20;;;;;;5029181;28;20026;-96
2023/04/27 01:18:57;;;;;;;5.50;2.40;;;9.20;55.80;;;;;;5027120;28;20034;-95
2023/04/27 01:21:24;;;;;;;4.90;2.55;;;9.20;55.40;;;;;;5028254;28;20495;-96
2023/04/27 01:23:49;;;;;;;4.70;2.55;;;9.20;55.40;;;;;;5027490;28;20483;-95
2023/04/27 01:26:15;;;;;;;8.13;2.90;;;9.10;55.30;;;;;;5054038;28;20036;-96
2023/04/27 01:28:43;;;;;;;5.88;2.38;;;9.10;55.40;;;;;;5027598;28;20036;-95
2023/04/27 01:31:10;;;;;;;5.97;2.50;;;9.00;55.30;;;;;;5035578;28;20041;-95
2023/04/27 01:33:36;;;;;;;4.53;2.05;;;9.00;55.40;;;;;;5038901;28;20022;-96
2023/04/27 01:36:02;;;;;;;4.68;2.28;;;8.90;55.40;;;;;;5030018;28;20544;-93
2023/04/27 01:38:28;;;;;;;6.47;2.55;;;8.90;55.30;;;;;;5034356;28;20044;-94
2023/04/27 01:41:00;;;;;;;3.45;2.20;;;8.80;55.40;;;;;;5030721;28;20044;-94
2023/04/27 01:43:26;;;;;;;6.07;2.03;;;8.80;55.40;;;;;;5030007;28;20030;-94
2023/04/27 01:45:52;;;;;;;6.80;2.40;;;8.80;55.60;;;;;;5030450;28;20040;-96
2023/04/27 01:48:18;;;;;;;7.45;2.97;;;8.80;55.60;;;;;;5024869;28;20029;-96
2023/04/27 01:50:44;;;;;;;6.68;2.65;;;8.80;55.60;;;;;;5028062;28;20026;-96
2023/04/27 01:53:09;;;;;;;4.22;2.20;;;8.70;55.70;;;;;;5031396;28;20037;-95
2023/04/27 01:55:35;;;;;;;4.40;2.33;;;8.70;55.70;;;;;;5031088;28;20476;-96
2023/04/27 01:58:01;;;;;;;3.78;2.03;;;8.70;55.80;;;;;;5029388;28;20388;-95
2023/04/27 02:00:27;;;;;;;4.18;2.40;;;8.60;56.00;;;;;;5027511;28;20026;-95
2023/04/27 02:02:55;;;;;;;5.10;2.72;;;8.60;56.00;;;;;;5059869;28;20112;-96
2023/04/27 02:05:22;;;;;;;5.15;2.17;;;8.60;56.20;;;;;;5029838;28;20116;-95
2023/04/27 02:07:48;;;;;;;3.90;2.15;;;8.50;56.10;;;;;;5029638;28;20030;-95
2023/04/27 02:10:14;;;;;;;4.97;2.10;;;8.50;56.10;;;;;;5031140;28;20025;-95
2023/04/27 02:12:40;;;;;;;6.38;2.17;;;8.50;56.10;;;;;;5029087;28;20035;-95
2023/04/27 02:15:07;;;;;;;4.68;2.10;;;8.40;56.10;;;;;;5028984;28;20030;-96
2023/04/27 02:17:33;;;;;;;2.97;2.03;;;8.40;56.30;;;;;;5025022;28;20029;-95
2023/04/27 02:19:59;;;;;;;3.53;2.80;;;8.30;56.40;;;;;;5030626;28;20021;-95
2023/04/27 02:22:26;;;;;;;6.13;2.75;;;8.30;56.50;;;;;;5029610;28;20475;-95
2023/04/27 02:24:51;;;;;;;5.97;2.58;;;8.30;56.60;;;;;;5028533;28;20156;-95
2023/04/27 02:27:17;;;;;;;11.18;2.20;;;8.30;56.50;;;;;;5032141;28;20380;-94
2023/04/27 02:29:43;;;;;;;5.20;2.35;;;8.30;56.40;;;;;;5029490;28;20108;-95
2023/04/27 02:32:08;;;;;;;7.15;2.35;;;8.30;56.40;;;;;;5030935;28;20031;-95
2023/04/27 02:34:34;;;;;;;9.32;2.45;;;8.30;56.40;;;;;;5031268;28;20430;-95
2023/04/27 02:37:00;;;;;;;8.23;2.10;;;8.20;56.40;;;;;;5033409;28;20032;-95
2023/04/27 02:39:26;;;;;;;4.47;2.35;;;8.20;56.60;;;;;;5027961;28;20025;-96
2023/04/27 02:41:51;;;;;;;9.02;2.53;;;8.20;56.50;;;;;;5031693;28;20041;-95
2023/04/27 02:44:17;;;;;;;3.65;2.13;;;8.20;56.60;;;;;;5029528;28;20476;-95
2023/04/27 02:46:43;;;;;;;8.48;2.70;;;8.20;56.60;;;;;;5034391;28;20036;-95
2023/04/27 02:49:09;;;;;;;6.13;2.63;;;8.20;56.70;;;;;;5034860;28;20475;-96
2023/04/27 02:51:34;;;;;;;3.78;2.30;;;8.10;56.90;;;;;;5022449;28;20041;-95
2023/04/27 02:54:00;;;;;;;5.38;2.10;;;8.10;57.00;;;;;;5028932;28;20033;-96
2023/04/27 02:56:26;;;;;;;3.97;2.22;;;8.10;57.20;;;;;;5031650;28;20214;-96
2023/04/27 02:58:52;;;;;;;3.75;2.28;;;8.10;57.10;;;;;;5030246;28;20075;-96
2023/04/27 03:01:17;;;;;;;7.03;3.08;;;8.10;57.10;;;;;;5032394;28;20036;-95
2023/04/27 03:03:46;;;;;;;4.78;2.30;;;8.10;57.20;;;;;;5027053;28;20567;-96
2023/04/27 03:06:13;;;;;;;13.38;2.40;;;8.00;57.50;;;;;;5025890;28;20182;-95
2023/04/27 03:08:39;;;;;;;8.18;2.17;;;8.10;58.00;;;;;;5029834;28;20417;-95
2023/04/27 03:11:05;;;;;;;5.90;2.58;;;8.00;57.30;;;;;;5032114;28;20127;-95
2023/04/27 03:13:37;;;;;;;5.70;2.45;;;8.00;57.30;;;;;;5029528;28;20440;-95
2023/04/27 03:16:03;;;;;;;5.80;2.22;;;8.00;57.40;;;;;;5030736;28;20626;-95
2023/04/27 03:18:29;;;;;;;9.90;2.70;;;8.00;57.30;;;;;;5030409;28;20029;-96
2023/04/27 03:21:04;;;;;;;5.55;2.58;;;8.00;57.40;;;;;;5032097;28;20025;-96
2023/04/27 03:23:30;;;;;;;3.45;1.88;;;8.00;58.00;;;;;;5021684;28;20435;-96
2023/04/27 03:25:56;;;;;;;5.60;2.22;;;7.90;57.40;;;;;;5026659;28;20124;-95
2023/04/27 03:28:22;;;;;;;3.42;2.08;;;7.90;57.40;;;;;;5027505;28;20029;-96
2023/04/27 03:30:47;;;;;;;6.15;2.47;;;7.90;57.50;;;;;;5026986;28;20033;-95
2023/04/27 03:33:13;;;;;;;6.53;2.35;;;7.90;57.50;;;;;;5026799;28;20486;-95
2023/04/27 03:35:39;;;;;;;8.75;2.25;;;7.80;57.20;;;;;;5027992;28;20030;-95
2023/04/27 03:38:05;;;;;;;6.63;2.60;;;7.80;57.30;;;;;;5027617;28;20037;-95
2023/04/27 03:40:31;;;;;;;5.88;2.60;;;7.80;57.20;;;;;;5025625;28;20021;-96
2023/04/27 03:42:56;;;;;;;7.68;2.65;;;7.80;57.20;;;;;;5030250;28;20025;-94
2023/04/27 03:45:23;;;;;;;2.95;2.17;;;7.80;57.40;;;;;;5032156;28;20084;-94
2023/04/27 03:47:49;;;;;;;4.88;2.47;;;7.70;57.40;;;;;;5033767;28;20026;-94
2023/04/27 03:50:15;;;;;;;5.63;2.13;;;7.70;57.60;;;;;;5030546;28;20032;-94
2023/04/27 03:52:41;;;;;;;14.15;2.38;;;7.70;57.70;;;;;;5029662;28;20025;-94
2023/04/27 03:55:07;;;;;;;6.10;2.47;;;7.70;57.70;;;;;;5027259;28;20030;-94
2023/04/27 03:57:32;;;;;;;5.80;2.30;;;7.70;57.70;;;;;;5027203;28;20033;-94
2023/04/27 03:59:58;;;;;;;3.70;2.10;;;7.70;57.80;;;;;;5052778;28;20021;-93
2023/04/27 04:02:24;;;;;;;4.18;2.17;;;7.70;57.80;;;;;;5026736;28;20049;-94
2023/04/27 04:04:50;;;;;;;9.20;2.38;;;7.60;57.90;;;;;;5025904;28;20538;-94
2023/04/27 04:07:15;;;;;;;4.88;2.30;;;7.60;57.90;;;;;;5028149;28;20033;-94
2023/04/27 04:09:43;;;;;;;7.47;2.60;;;7.60;57.80;;;;;;5025055;28;20463;-94
2023/04/27 04:12:08;;;;;;;4.88;2.28;;;7.70;58.00;;;;;;5025155;28;20357;-94
2023/04/27 04:14:34;;;;;;;8.88;2.30;;;7.60;57.90;;;;;;5024442;28;20080;-94
2023/04/27 04:17:00;;;;;;;6.93;2.40;;;7.70;58.00;;;;;;5024670;28;20030;-94
2023/04/27 04:19:26;;;;;;;7.40;2.35;;;7.70;58.00;;;;;;5027391;28;20336;-93
2023/04/27 04:21:53;;;;;;;10.88;2.38;;;7.70;58.20;;;;;;5026277;28;20045;-94
2023/04/27 04:24:19;;;;;;;3.97;2.25;;;7.70;58.20;;;;;;5028221;28;20045;-94
2023/04/27 04:26:46;;;;;;;5.55;2.60;;;7.70;58.20;;;;;;5026872;28;20033;-94
2023/04/27 04:29:11;;;;;;;5.65;2.33;;;7.70;58.20;;;;;;5021676;28;20029;-94
2023/04/27 04:31:37;;;;;;;6.82;2.60;;;7.70;58.40;;;;;;5025311;28;20030;-94
2023/04/27 04:34:03;;;;;;;4.47;2.70;;;7.70;58.50;;;;;;5029645;28;20468;-95
2023/04/27 04:36:30;;;;;;;4.55;2.90;;;7.70;58.50;;;;;;5026184;28;20080;-95
2023/04/27 04:38:57;;;;;;;3.30;2.45;;;7.80;58.70;;;;;;5025617;28;20036;-93
2023/04/27 04:41:23;;;;;;;4.55;2.58;;;7.80;58.80;;;;;;5024751;28;20045;-95
2023/04/27 04:43:49;;;;;;;7.65;2.47;;;7.80;58.90;;;;;;5026595;28;20060;-96
2023/04/27 04:46:15;;;;;;;4.88;2.67;;;7.90;59.10;;;;;;5026240;28;20128;-95
2023/04/27 04:48:41;;;;;;;6.38;2.40;;;7.90;59.10;;;;;;5031489;28;20061;-93
2023/04/27 04:51:07;;;;;;;6.88;2.70;;;8.00;59.00;;;;;;5044580;28;20037;-95
2023/04/27 04:53:32;;;;;;;3.00;2.22;;;7.90;59.00;;;;;;5029002;28;20180;-96
2023/04/27 04:56:11;;;;;;;11.80;3.33;;;8.00;59.00;;;;;;5028688;28;20021;-96
2023/04/27 04:58:37;;;;;;;8.48;3.63;;;8.00;59.40;;;;;;5025130;28;20040;-96
2023/04/27 05:01:02;;;;;;;10.80;4.13;;;8.10;58.90;;;;;;5028446;28;20096;-96
2023/04/27 05:03:28;;;;;;;13.35;6.85;;;8.10;58.90;;;;;;5025775;28;20030;-95
2023/04/27 05:05:54;;;;;;;14.50;7.63;;;8.10;58.90;;;;;;5032701;28;20533;-96
2023/04/27 05:08:20;;;;;;;15.18;8.02;;;8.20;58.90;;;;;;5035791;28;20083;-95
2023/04/27 05:10:55;;;;;;;15.38;6.28;;;8.20;59.00;;;;;;5031342;28;20097;-94
2023/04/27 05:13:21;;;;;;;10.65;4.03;;;8.30;59.40;;;;;;5032544;28;20025;-95
2023/04/27 05:15:47;;;;;;;8.30;3.70;;;8.30;59.00;;;;;;5031606;28;20136;-96
2023/04/27 05:18:13;;;;;;;8.25;3.42;;;8.40;59.00;;;;;;5033450;28;20491;-94
2023/04/27 05:20:38;;;;;;;11.32;3.60;;;8.40;59.00;;;;;;5034967;28;20026;-95
2023/04/27 05:23:04;;;;;;;8.93;3.70;;;8.50;59.00;;;;;;5028617;28;20057;-96
2023/04/27 05:25:31;;;;;;;10.60;3.75;;;8.50;58.90;;;;;;5032348;28;20075;-94
2023/04/27 05:27:57;;;;;;;11.30;4.18;;;8.50;58.90;;;;;;5039098;28;20039;-94
2023/04/27 05:30:23;;;;;;;10.30;4.65;;;8.60;58.80;;;;;;5036690;28;20039;-95
2023/04/27 05:32:48;;;;;;;14.55;5.38;;;8.60;58.90;;;;;;5035214;28;20032;-94
2023/04/27 05:35:14;;;;;;;13.27;5.78;;;8.70;58.90;;;;;;5032379;28;20116;-95
2023/04/27 05:37:40;;;;;;;13.02;5.22;;;8.70;58.60;;;;;;5037530;28;20029;-95
2023/04/27 05:40:09;;;;;;;8.82;4.38;;;8.80;58.70;;;;;;5029867;28;20040;-95
2023/04/27 05:42:35;;;;;;;10.48;5.07;;;8.80;58.70;;;;;;5028942;28;20042;-95
2023/04/27 05:45:02;;;;;;;7.22;4.10;;;8.90;58.70;;;;;;5027723;28;20036;-93
2023/04/27 05:47:29;;;;;;;8.48;4.35;;;8.90;58.60;;;;;;5034114;28;20109;-96
2023/04/27 05:49:55;;;;;;;10.20;4.57;;;9.00;58.60;;;;;;5033151;28;20384;-95
2023/04/27 05:52:21;;;;;;;10.88;4.47;;;9.10;58.40;;;;;;5024273;28;20026;-96
2023/04/27 05:54:47;;;;;;;15.93;4.80;;;9.10;58.40;;;;;;5031678;28;20121;-96
2023/04/27 05:57:13;;;;;;;13.35;5.80;;;9.20;58.60;;;;;;5032322;28;20480;-95
2023/04/27 05:59:39;;;;;;;11.93;5.30;;;9.30;58.50;;;;;;5029934;28;20026;-95
2023/04/27 06:02:05;;;;;;;10.98;4.60;;;9.30;58.60;;;;;;5031068;28;20042;-95
2023/04/27 06:04:32;;;;;;;5.82;3.90;;;9.40;58.70;;;;;;5033001;28;20386;-95
2023/04/27 06:06:58;;;;;;;9.27;3.03;;;9.50;58.80;;;;;;5027473;28;20029;-94
2023/04/27 06:09:25;;;;;;;8.57;3.03;;;9.60;58.90;;;;;;5032826;28;20431;-94
2023/04/27 06:11:53;;;;;;;4.50;2.65;;;9.60;58.90;;;;;;5030498;28;20029;-94
2023/04/27 06:14:19;;;;;;;7.38;3.08;;;9.80;58.90;;;;;;5033066;28;20053;-95
2023/04/27 06:16:44;;;;;;;6.03;2.58;;;9.80;58.90;;;;;;5031420;28;20033;-95
2023/04/27 06:19:10;;;;;;;10.68;2.70;;;9.90;58.80;;;;;;5029504;28;20155;-94
2023/04/27 06:21:36;;;;;;;5.85;2.60;;;10.00;58.70;;;;;;5032653;28;20068;-94
2023/04/27 06:24:02;;;;;;;6.35;2.47;;;10.10;58.60;;;;;;5026232;28;20045;-94
2023/04/27 06:26:28;;;;;;;6.43;2.70;;;10.20;58.30;;;;;;5025509;28;20025;-94
2023/04/27 06:28:55;;;;;;;9.45;2.97;;;10.30;58.20;;;;;;5025179;28;20054;-95
2023/04/27 06:31:21;;;;;;;7.32;3.08;;;10.40;58.10;;;;;;5029202;28;20098;-94
2023/04/27 06:33:46;;;;;;;6.88;2.85;;;10.40;58.00;;;;;;5026917;28;20494;-95
2023/04/27 06:36:12;;;;;;;6.07;3.10;;;10.60;57.90;;;;;;5027921;28;20045;-94
2023/04/27 06:38:39;;;;;;;8.30;3.05;;;10.60;57.80;;;;;;5025060;28;20018;-94
2023/04/27 06:41:05;;;;;;;11.43;3.42;;;10.70;58.10;;;;;;5031076;28;20495;-94
2023/04/27 06:43:31;;;;;;;7.95;3.80;;;10.80;58.10;;;;;;5024443;28;20033;-95
2023/04/27 06:45:57;;;;;;;11.63;4.25;;;10.90;57.80;;;;;;5026809;28;20493;-95
2023/04/27 06:48:22;;;;;;;12.52;4.05;;;11.00;57.80;;;;;;5029208;28;20480;-95
2023/04/27 06:50:48;;;;;;;18.90;4.00;;;11.10;57.70;;;;;;5029402;28;20438;-95
2023/04/27 06:53:16;;;;;;;10.93;3.75;;;11.20;57.50;;;;;;5028100;28;20033;-94
2023/04/27 06:55:42;;;;;;;6.38;3.15;;;11.30;57.10;;;;;;5025650;28;20057;-94
2023/04/27 06:58:08;;;;;;;9.35;3.88;;;11.40;56.40;;;;;;5029190;28;20025;-94
2023/04/27 07:00:34;;;;;;;11.05;3.70;;;11.50;56.10;;;;;;5033594;28;20112;-94
2023/04/27 07:03:00;;;;;;;10.15;3.58;;;11.60;56.00;;;;;;5024203;28;20047;-95
2023/04/27 07:05:26;;;;;;;9.02;3.70;;;11.70;55.80;;;;;;5030044;28;20087;-94
2023/04/27 07:07:52;;;;;;;10.52;3.63;;;11.80;55.70;;;;;;5027513;28;20038;-93
2023/04/27 07:10:17;;;;;;;12.77;3.70;;;11.90;55.40;;;;;;5024339;28;20503;-95
2023/04/27 07:12:43;;;;;;;7.03;3.67;;;12.10;55.40;;;;;;5025881;28;20195;-94
2023/04/27 07:15:10;;;;;;;8.23;3.58;;;12.20;55.40;;;;;;5027992;28;20025;-95
2023/04/27 07:17:35;;;;;;;6.50;3.67;;;12.30;55.00;;;;;;5028996;28;20025;-94
2023/04/27 07:20:05;;;;;;;12.23;3.55;;;12.40;54.60;;;;;;5030531;28;20376;-94
2023/04/27 07:22:32;;;;;;;8.23;3.22;;;12.50;54.40;;;;;;5032828;28;20059;-95
2023/04/27 07:24:58;;;;;;;9.73;3.67;;;12.70;54.30;;;;;;5030675;28;20123;-94
2023/04/27 07:27:25;;;;;;;7.55;3.42;;;12.90;54.10;;;;;;5025649;28;20055;-95
2023/04/27 07:29:52;;;;;;;5.75;3.55;;;13.00;53.90;;;;;;5033036;28;20037;-94
2023/04/27 07:32:17;;;;;;;8.80;3.85;;;13.10;53.90;;;;;;5031157;28;20136;-94
2023/04/27 07:34:43;;;;;;;7.70;3.75;;;13.30;53.80;;;;;;5035114;28;20491;-94
2023/04/27 07:37:09;;;;;;;6.95;3.97;;;13.40;53.40;;;;;;5037301;28;20033;-94
2023/04/27 07:39:35;;;;;;;8.68;3.65;;;13.50;53.00;;;;;;5035556;28;20044;-94
2023/04/27 07:42:02;;;;;;;8.85;3.72;;;13.60;52.90;;;;;;5038132;28;20036;-95
2023/04/27 07:44:29;;;;;;;6.47;3.83;;;13.70;52.70;;;;;;5035347;28;20025;-94
2023/04/27 07:46:57;;;;;;;9.77;4.15;;;13.80;52.50;;;;;;5037939;28;20045;-94
2023/04/27 07:49:24;;;;;;;13.00;3.88;;;13.80;51.90;;;;;;5034940;28;20049;-94
2023/04/27 07:51:50;;;;;;;7.10;3.35;;;13.80;51.80;;;;;;5038913;28;20028;-94
2023/04/27 07:54:15;;;;;;;10.00;3.45;;;13.90;51.90;;;;;;5036739;28;20025;-94
2023/04/27 07:56:42;;;;;;;9.68;3.40;;;14.00;52.00;;;;;;5036664;28;20029;-94
2023/04/27 07:59:08;;;;;;;13.30;4.00;;;14.00;52.10;;;;;;5036136;28;20029;-95
2023/04/27 08:01:33;;;;;;;6.22;3.78;;;14.10;51.80;;;;;;5025133;28;20029;-93
2023/04/27 08:03:59;;;;;;;6.10;3.45;;;14.20;51.60;;;;;;5031490;28;20472;-94
2023/04/27 08:06:27;;;;;;;9.50;3.80;;;14.30;51.70;;;;;;5032158;28;20029;-94
2023/04/27 08:08:57;;;;;;;10.95;4.00;;;14.40;52.00;;;;;;5031617;28;20075;-93
2023/04/27 08:11:23;;;;;;;7.75;3.53;;;14.50;51.80;;;;;;5034435;28;20507;-94
2023/04/27 08:13:48;;;;;;;7.68;3.72;;;14.70;51.40;;;;;;5031255;28;20036;-94
2023/04/27 08:16:14;;;;;;;11.70;3.35;;;14.80;51.00;;;;;;5036250;28;20028;-93
2023/04/27 08:18:40;;;;;;;7.72;4.22;;;14.80;51.00;;;;;;5033949;28;20024;-94
2023/04/27 08:21:06;;;;;;;7.10;3.97;;;14.90;50.90;;;;;;5034962;28;20040;-93
2023/04/27 08:23:31;;;;;;;6.93;3.80;;;15.10;50.60;;;;;;5035268;28;20468;-93
2023/04/27 08:25:58;;;;;;;10.25;5.70;;;15.20;50.40;;;;;;5034524;28;20059;-94
2023/04/27 08:28:23;;;;;;;7.88;3.90;;;15.30;50.50;;;;;;5033219;28;20527;-95
2023/04/27 08:30:50;;;;;;;10.57;7.68;;;15.40;50.70;;;;;;5035010;28;20158;-94
2023/04/27 08:33:16;;;;;;;6.65;4.32;;;15.60;50.60;;;;;;5035362;28;20112;-94
2023/04/27 08:35:42;;;;;;;14.85;4.97;;;15.80;50.40;;;;;;5035694;28;20052;-94
2023/04/27 08:38:07;;;;;;;8.60;4.03;;;15.90;49.60;;;;;;5034589;28;20032;-94
2023/04/27 08:40:42;;;;;;;9.00;3.63;;;16.10;49.80;;;;;;5044086;28;20041;-93
2023/04/27 08:43:08;;;;;;;9.45;3.92;;;16.10;49.10;;;;;;5048049;28;20033;-93
2023/04/27 08:45:49;;;;;;;10.73;4.07;;;16.40;49.40;;;;;;5048289;28;20047;-93
2023/04/27 08:48:15;;;;;;;10.15;3.88;;;16.50;49.10;;;;;;5048852;28;20475;-93
2023/04/27 08:50:46;;;;;;;6.50;3.75;;;16.60;49.10;;;;;;5043571;28;20029;-94
2023/04/27 08:53:17;;;;;;;6.40;3.58;;;16.70;48.70;;;;;;5039858;28;20037;-94
2023/04/27 08:55:43;;;;;;;12.50;4.43;;;16.90;48.60;;;;;;5039706;28;20062;-94
2023/04/27 08:58:08;;;;;;;6.13;4.10;;;16.90;48.70;;;;;;5034390;28;20464;-93
2023/04/27 09:00:40;;;;;;;6.88;3.70;;;17.10;48.60;;;;;;5034229;28;20029;-94
2023/04/27 09:03:07;;;;;;;6.70;3.75;;;17.20;48.20;;;;;;5036172;28;20033;-94
2023/04/27 09:05:33;;;;;;;6.82;3.53;;;17.40;48.50;;;;;;5032864;28;20033;-95
2023/04/27 09:08:06;;;;;;;6.10;3.95;;;17.40;48.00;;;;;;5036766;28;20057;-94
2023/04/27 09:10:46;;;;;;;6.85;3.90;;;17.50;47.60;;;;;;5034553;28;20032;-95
2023/04/27 09:13:12;;;;;;;13.02;4.32;;;17.50;47.10;;;;;;5036537;28;20041;-95
2023/04/27 09:15:47;;;;;;;10.90;3.67;;;17.70;47.60;;;;;;5036467;28;20059;-94
2023/04/27 09:18:21;;;;;;;6.00;3.42;;;17.80;47.10;;;;;;5059805;28;20025;-94
2023/04/27 09:20:49;;;;;;;9.70;3.53;;;17.90;46.80;;;;;;5037040;28;20132;-94
2023/04/27 09:23:33;;;;;;;7.53;3.78;;;18.00;46.70;;;;;;5035813;28;20052;-94
2023/04/27 09:26:01;;;;;;;8.52;3.83;;;18.00;45.50;;;;;;5034789;28;20030;-95
2023/04/27 09:28:29;;;;;;;8.68;3.83;;;18.10;46.30;;;;;;5036597;28;20070;-93
2023/04/27 09:30:57;;;;;;;5.63;3.88;;;18.10;46.60;;;;;;5035594;28;20479;-94
2023/04/27 09:33:29;;;;;;;7.03;4.03;;;18.20;46.00;;;;;;5030894;28;20088;-94
2023/04/27 09:35:57;;;;;;;7.75;4.10;;;18.30;45.70;;;;;;5033951;28;20131;-93
2023/04/27 09:38:23;;;;;;;7.15;4.13;;;18.30;45.70;;;;;;5035248;28;20059;-94
2023/04/27 09:40:51;;;;;;;9.25;4.43;;;18.40;45.60;;;;;;5030899;28;20111;-95
2023/04/27 09:43:17;;;;;;;6.68;4.47;;;18.50;45.60;;;;;;5033588;28;20103;-95
2023/04/27 09:45:43;;;;;;;6.03;3.47;;;18.50;45.10;;;;;;5033257;28;20036;-94
2023/04/27 09:48:12;;;;;;;6.85;3.72;;;18.70;45.20;;;;;;5033113;28;22645;-95
2023/04/27 09:50:40;;;;;;;5.38;3.17;;;18.70;45.10;;;;;;5029615;28;20025;-94
2023/04/27 09:53:09;;;;;;;6.95;3.03;;;18.70;44.70;;;;;;5025765;28;20025;-95
2023/04/27 09:55:55;;;;;;;10.18;3.58;;;18.70;44.40;;;;;;5033012;28;20040;-94
2023/04/27 09:58:42;;;;;;;5.40;3.08;;;18.80;44.10;;;;;;5032157;28;20051;-94
2023/04/27 10:01:34;;;;;;;7.63;3.65;;;18.90;43.50;;;;;;5032690;28;20040;-94
2023/04/27 10:04:37;;;;;;;6.45;3.60;;;18.90;43.20;;;;;;5030045;28;20033;-94
2023/04/27 10:07:06;;;;;;;6.97;3.38;;;19.00;42.80;;;;;;5031251;28;20479;-94
2023/04/27 10:09:50;;;;;;;8.55;2.97;;;18.90;43.50;;;;;;5031366;28;20103;-93
2023/04/27 10:12:31;;;;;;;9.88;3.15;;;18.90;43.30;;;;;;5030054;28;20025;-94
2023/04/27 10:14:59;;;;;;;9.93;3.65;;;18.80;42.20;;;;;;5028340;28;20029;-95
2023/04/27 10:17:30;;;;;;;5.50;3.20;;;18.80;43.30;;;;;;5028289;28;20029;-94
2023/04/27 10:20:01;;;;;;;4.35;3.00;;;18.80;43.40;;;;;;5031004;28;20183;-95
2023/04/27 10:22:41;;;;;;;6.10;3.60;;;18.80;43.80;;;;;;5031435;28;20083;-93
2023/04/27 10:25:37;;;;;;;6.95;3.63;;;18.90;42.70;;;;;;5031249;28;20108;-95
2023/04/27 10:28:03;;;;;;;6.57;3.38;;;18.90;42.80;;;;;;5030901;28;20025;-94
2023/04/27 10:30:37;;;;;;;5.60;2.83;;;19.00;43.80;;;;;;5032427;28;20032;-94
2023/04/27 10:33:08;;;;;;;;;;;19.10;43.40;;;;;;5027840;28;20056;-95
2023/04/27 10:35:41;;;;;;;4.88;3.45;;;19.20;44.10;;;;;;5032224;28;20011;-94
2023/04/27 10:38:08;;;;;;;5.82;3.03;;;19.40;43.40;;;;;;5032738;28;20025;-95
2023/04/27 10:40:35;;;;;;;7.05;3.28;;;19.40;43.00;;;;;;5033299;28;20041;-95
2023/04/27 10:43:12;;;;;;;5.30;3.63;;;19.60;43.10;;;;;;5028299;28;20033;-95
2023/04/27 10:45:39;;;;;;;6.22;3.53;;;19.70;42.70;;;;;;5026914;28;20034;-95
2023/04/27 10:48:05;;;;;;;7.10;3.58;;;19.80;42.90;;;;;;5033516;28;20037;-94
2023/04/27 10:50:31;;;;;;;8.30;3.22;;;19.90;42.10;;;;;;5032812;28;20378;-94
2023/04/27 10:53:06;;;;;;;8.05;3.67;;;20.00;41.60;;;;;;5031716;28;20029;-95
2023/04/27 10:55:33;;;;;;;6.80;3.97;;;19.90;40.00;;;;;;5032387;28;20029;-94
2023/04/27 10:58:00;;;;;;;8.90;3.60;;;20.20;41.50;;;;;;5029151;28;20029;-95
2023/04/27 11:00:31;;;;;;;5.88;3.03;;;20.30;41.70;;;;;;5031159;28;20032;-94
2023/04/27 11:03:16;;;;;;;7.43;3.38;;;20.40;41.90;;;;;;5030814;28;20041;-95
2023/04/27 11:05:44;;;;;;;5.72;3.80;;;20.50;40.60;;;;;;5030637;28;20032;-94
2023/04/27 11:08:17;;;;;;;8.23;3.05;;;20.60;41.30;;;;;;5029503;28;20025;-94
2023/04/27 11:10:45;;;;;;;8.52;3.65;;;20.70;40.90;;;;;;5030157;28;20025;-94
2023/04/27 11:13:14;;;;;;;6.32;3.55;;;21.00;40.70;;;;;;5031290;28;20052;-96
2023/04/27 11:15:47;;;;;;;6.10;3.33;;;20.80;39.60;;;;;;5033815;28;20024;-93
2023/04/27 11:18:14;;;;;;;10.15;4.30;;;20.80;40.50;;;;;;5043455;28;20063;-95
2023/04/27 11:20:41;;;;;;;7.93;4.97;;;20.80;40.20;;;;;;5039458;28;20028;-94
2023/04/27 11:23:09;;;;;;;6.93;4.38;;;20.80;39.80;;;;;;5044592;28;20053;-95
2023/04/27 11:25:36;;;;;;;7.68;3.75;;;20.80;39.70;;;;;;5041049;28;20021;-93
2023/04/27 11:28:03;;;;;;;27.60;14.45;;;20.70;39.70;;;;;;5034476;28;20021;-94
2023/04/27 11:30:30;;;;;;;16.85;9.20;;;20.70;39.80;;;;;;5026750;28;20025;-95
2023/04/27 11:32:56;;;;;;;9.05;4.78;;;20.60;39.20;;;;;;5029142;28;20472;-95
2023/04/27 11:35:34;;;;;;;12.43;8.15;;;20.50;38.70;;;;;;5023992;28;20025;-95
2023/04/27 11:38:00;;;;;;;7.93;4.43;;;20.40;38.90;;;;;;5028021;28;20330;-95
2023/04/27 11:40:28;;;;;;;10.20;6.05;;;20.30;39.10;;;;;;5030001;28;20025;-95
2023/04/27 11:42:58;;;;;;;10.05;5.55;;;20.10;38.90;;;;;;5032720;28;20090;-95
2023/04/27 11:45:26;;;;;;;9.20;3.85;;;20.10;39.70;;;;;;5028370;28;20025;-95
2023/04/27 11:47:52;;;;;;;7.50;4.45;;;20.00;40.40;;;;;;5031228;28;20056;-94
2023/04/27 11:50:18;;;;;;;13.45;6.13;;;19.90;40.40;;;;;;5030086;28;20488;-94
2023/04/27 11:52:48;;;;;;;8.45;4.45;;;19.90;40.20;;;;;;5031887;28;20498;-94
2023/04/27 11:55:17;;;;;;;34.20;20.73;;;20.00;40.20;;;;;;5026403;28;20032;-94
2023/04/27 11:57:42;;;;;;;17.48;9.13;;;20.00;40.10;;;;;;5042573;28;20021;-94
2023/04/27 12:00:16;;;;;;;7.35;4.88;;;20.10;39.70;;;;;;5029339;28;20021;-94
2023/04/27 12:02:44;;;;;;;5.93;3.92;;;20.00;39.40;;;;;;5031269;28;20040;-94
2023/04/27 12:05:15;;;;;;;6.88;3.75;;;20.10;39.30;;;;;;5030923;28;20032;-95
2023/04/27 12:07:49;;;;;;;8.18;3.67;;;20.00;38.80;;;;;;5033509;28;20036;-96
2023/04/27 12:10:15;;;;;;;8.60;4.80;;;20.10;39.40;;;;;;5032062;28;20025;-95
2023/04/27 12:12:54;;;;;;;10.02;6.30;;;19.90;39.30;;;;;;5033955;28;20128;-96
2023/04/27 12:15:29;;;;;;;6.65;4.43;;;20.10;39.70;;;;;;5028057;28;20025;-95
2023/04/27 12:18:00;;;;;;;;;;;19.80;39.30;;;;;;5030109;28;20071;-95
2023/04/27 12:20:35;;;;;;;4.68;3.17;;;19.90;38.70;;;;;;5028886;28;19917;-95
2023/04/27 12:23:04;;;;;;;11.40;3.85;;;19.90;39.60;;;;;;5027333;28;20045;-94
2023/04/27 12:25:35;;;;;;;6.07;3.83;;;19.70;38.90;;;;;;5030443;28;20080;-94
2023/04/27 12:28:17;;;;;;;5.82;3.58;;;19.70;38.50;;;;;;5037221;28;20044;-94
2023/04/27 12:30:43;;;;;;;4.85;3.35;;;19.50;38.90;;;;;;5027200;23;20049;-60
2023/04/27 12:33:10;;;;;;;6.07;3.30;;;19.50;39.60;;;;;;5036893;28;20061;-62
2023/04/27 12:35:36;;;;;;;6.55;3.25;;;19.40;40.10;;;;;;5031806;28;20037;-61
2023/04/27 12:38:02;;;;;;;6.43;3.60;;;19.40;40.50;;;;;;5032608;28;20017;-61
2023/04/27 12:40:28;;;;;;;7.72;4.63;;;19.40;41.00;;;;;;4980686;28;20571;-61
2023/04/27 12:42:54;;;;;;;12.00;5.40;;;19.40;41.10;;;;;;5031440;28;20073;-61
2023/04/27 12:45:19;;;;;;;29.17;18.58;;;19.40;41.40;;;;;;5033533;28;20029;-61
2023/04/27 12:47:46;;;;;;;37.28;26.13;;;19.40;41.50;;;;;;5030419;28;20033;-63
2023/04/27 12:50:14;;;;;;;17.63;10.60;;;19.50;41.20;;;;;;5029212;28;20490;-61
2023/04/27 12:52:40;;;;;;;12.88;9.00;;;19.40;40.90;;;;;;5030250;28;20034;-62